createdAt,value
2018-05-06T00:00:16.839Z,12.87
2018-05-06T00:01:16.875Z,12.84
2018-05-06T00:02:17.131Z,12.70
2018-05-06T00:03:16.387Z,12.67
2018-05-06T00:04:16.651Z,12.51
2018-05-06T00:05:16.948Z,12.56
2018-05-06T00:06:17.244Z,12.44
2018-05-06T00:07:16.516Z,12.32
2018-05-06T00:08:16.846Z,12.30
2018-05-06T00:09:17.104Z,12.25
2018-05-06T00:10:16.454Z,12.19
2018-05-06T00:11:16.457Z,12.56
2018-05-06T00:12:16.753Z,12.81
2018-05-06T00:13:17.015Z,12.63
2018-05-06T00:14:17.286Z,12.40
2018-05-06T00:15:16.619Z,12.36
2018-05-06T00:16:16.990Z,12.23
2018-05-06T00:17:17.249Z,12.22
2018-05-06T00:18:16.508Z,12.25
2018-05-06T00:19:16.770Z,12.84
2018-05-06T00:20:17.041Z,12.99
2018-05-06T00:21:17.083Z,12.91
2018-05-06T00:22:16.347Z,12.60
2018-05-06T00:23:16.607Z,12.49
2018-05-06T00:24:16.871Z,12.36
2018-05-06T00:25:17.422Z,12.22
2018-05-06T00:26:16.693Z,12.15
2018-05-06T00:27:16.951Z,12.05
2018-05-06T00:28:17.213Z,11.91
2018-05-06T00:29:16.473Z,11.86
2018-05-06T00:30:16.752Z,11.80
2018-05-06T00:31:16.785Z,11.67
2018-05-06T00:32:17.048Z,11.63
2018-05-06T00:33:16.304Z,11.61
2018-05-06T00:34:16.569Z,11.53
2018-05-06T00:35:16.844Z,11.50
2018-05-06T00:36:17.102Z,11.50
2018-05-06T00:37:16.359Z,11.54
2018-05-06T00:38:16.622Z,11.46
2018-05-06T00:39:16.888Z,11.49
2018-05-06T00:40:17.215Z,11.43
2018-05-06T00:41:17.180Z,11.43
2018-05-06T00:42:16.449Z,11.98
2018-05-06T00:43:16.715Z,12.09
2018-05-06T00:44:16.985Z,11.88
2018-05-06T00:45:17.255Z,11.77
2018-05-06T00:46:16.604Z,11.74
2018-05-06T00:47:16.968Z,11.74
2018-05-06T00:48:17.231Z,11.67
2018-05-06T00:49:16.562Z,11.65
2018-05-06T00:50:16.838Z,11.61
2018-05-06T00:51:16.874Z,11.61
2018-05-06T00:52:17.146Z,11.55
2018-05-06T00:53:16.402Z,11.60
2018-05-06T00:54:16.653Z,11.67
2018-05-06T00:55:16.913Z,11.63
2018-05-06T00:56:16.336Z,11.54
2018-05-06T00:57:16.603Z,11.55
2018-05-06T00:58:16.866Z,11.50
2018-05-06T00:59:17.124Z,11.58
2018-05-06T01:00:16.387Z,11.50
2018-05-06T01:01:16.446Z,11.31
2018-05-06T01:02:16.700Z,11.26
2018-05-06T01:03:16.987Z,11.15
2018-05-06T01:04:17.249Z,11.15
2018-05-06T01:05:16.504Z,11.22
2018-05-06T01:06:16.769Z,11.19
2018-05-06T01:07:17.047Z,11.23
2018-05-06T01:08:16.316Z,11.17
2018-05-06T01:09:16.576Z,11.17
2018-05-06T01:10:16.848Z,11.55
2018-05-06T01:11:16.889Z,11.93
2018-05-06T01:12:17.145Z,11.85
2018-05-06T01:13:16.413Z,11.92
2018-05-06T01:14:16.672Z,11.91
2018-05-06T01:15:16.952Z,11.77
2018-05-06T01:16:17.203Z,11.77
2018-05-06T01:17:16.463Z,11.93
2018-05-06T01:18:16.739Z,11.91
2018-05-06T01:19:17.002Z,11.85
2018-05-06T01:20:17.399Z,11.85
2018-05-06T01:21:16.301Z,12.05
2018-05-06T01:22:16.576Z,12.01
2018-05-06T01:23:16.840Z,11.99
2018-05-06T01:24:17.097Z,11.98
2018-05-06T01:25:16.350Z,12.06
2018-05-06T01:26:16.612Z,12.05
2018-05-06T01:27:16.872Z,11.98
2018-05-06T01:28:17.129Z,11.92
2018-05-06T01:29:16.387Z,12.20
2018-05-06T01:30:16.649Z,12.26
2018-05-06T01:31:16.688Z,12.29
2018-05-06T01:32:16.950Z,12.36
2018-05-06T01:33:17.207Z,12.28
2018-05-06T01:34:16.472Z,12.30
2018-05-06T01:35:16.735Z,12.16
2018-05-06T01:36:16.987Z,12.13
2018-05-06T01:37:17.260Z,12.33
2018-05-06T01:38:16.521Z,12.32
2018-05-06T01:39:16.786Z,12.29
2018-05-06T01:40:17.047Z,12.20
2018-05-06T01:41:17.093Z,12.28
2018-05-06T01:42:16.574Z,12.30
2018-05-06T01:43:16.851Z,12.08
2018-05-06T01:44:17.122Z,12.03
2018-05-06T01:45:16.385Z,11.95
2018-05-06T01:46:16.646Z,11.91
2018-05-06T01:47:16.905Z,11.91
2018-05-06T01:48:17.212Z,12.08
2018-05-06T01:49:16.486Z,12.23
2018-05-06T01:50:16.758Z,12.16
2018-05-06T01:51:16.818Z,12.06
2018-05-06T01:52:17.082Z,12.01
2018-05-06T01:53:16.348Z,11.98
2018-05-06T01:54:16.611Z,11.92
2018-05-06T01:55:16.897Z,11.93
2018-05-06T01:56:17.165Z,11.89
2018-05-06T01:57:16.490Z,11.93
2018-05-06T01:58:16.760Z,11.92
2018-05-06T01:59:17.017Z,11.93
2018-05-06T02:00:17.282Z,11.77
2018-05-06T02:01:16.326Z,11.75
2018-05-06T02:02:16.590Z,11.80
2018-05-06T02:03:16.851Z,11.77
2018-05-06T02:04:17.122Z,11.72
2018-05-06T02:05:16.398Z,11.65
2018-05-06T02:06:16.669Z,11.63
2018-05-06T02:07:16.925Z,11.55
2018-05-06T02:08:17.190Z,11.58
2018-05-06T02:09:16.450Z,11.54
2018-05-06T02:10:16.709Z,11.47
2018-05-06T02:11:16.757Z,11.36
2018-05-06T02:12:17.107Z,11.37
2018-05-06T02:13:16.377Z,11.43
2018-05-06T02:14:16.641Z,11.42
2018-05-06T02:15:16.902Z,11.40
2018-05-06T02:16:17.169Z,11.36
2018-05-06T02:17:16.427Z,11.30
2018-05-06T02:18:16.689Z,11.43
2018-05-06T02:19:16.952Z,11.34
2018-05-06T02:20:17.222Z,11.30
2018-05-06T02:21:17.265Z,11.19
2018-05-06T02:22:16.523Z,11.17
2018-05-06T02:23:16.786Z,11.03
2018-05-06T02:24:17.050Z,10.91
2018-05-06T02:25:16.315Z,10.87
2018-05-06T02:26:16.580Z,10.75
2018-05-06T02:27:16.844Z,10.75
2018-05-06T02:28:17.230Z,10.67
2018-05-06T02:29:16.491Z,10.61
2018-05-06T02:30:16.846Z,10.54
2018-05-06T02:31:16.795Z,10.56
2018-05-06T02:32:17.063Z,11.10
2018-05-06T02:33:16.833Z,10.79
2018-05-06T02:34:17.103Z,10.71
2018-05-06T02:35:16.366Z,10.67
2018-05-06T02:36:16.633Z,10.68
2018-05-06T02:37:16.889Z,10.68
2018-05-06T02:38:17.163Z,10.81
2018-05-06T02:39:16.436Z,11.25
2018-05-06T02:40:16.717Z,11.20
2018-05-06T02:41:16.764Z,11.06
2018-05-06T02:42:17.034Z,10.87
2018-05-06T02:43:16.294Z,10.89
2018-05-06T02:44:16.557Z,10.91
2018-05-06T02:45:16.821Z,10.84
2018-05-06T02:46:16.652Z,10.74
2018-05-06T02:47:16.921Z,10.64
2018-05-06T02:48:17.203Z,10.58
2018-05-06T02:49:16.463Z,10.41
2018-05-06T02:50:16.732Z,10.37
2018-05-06T02:51:16.774Z,10.30
2018-05-06T02:52:17.041Z,10.31
2018-05-06T02:53:16.301Z,10.24
2018-05-06T02:54:16.578Z,10.19
2018-05-06T02:55:16.842Z,10.13
2018-05-06T02:56:17.094Z,10.20
2018-05-06T02:57:16.356Z,10.09
2018-05-06T02:58:16.621Z,9.99
2018-05-06T02:59:16.885Z,9.96
2018-05-06T03:00:17.153Z,9.99
2018-05-06T03:01:17.204Z,9.95
2018-05-06T03:02:16.466Z,9.92
2018-05-06T03:03:16.726Z,9.88
2018-05-06T03:04:17.011Z,9.89
2018-05-06T03:05:17.285Z,9.92
2018-05-06T03:06:16.546Z,9.92
2018-05-06T03:07:16.822Z,9.82
2018-05-06T03:08:17.080Z,9.74
2018-05-06T03:09:16.332Z,9.71
2018-05-06T03:10:16.605Z,9.72
2018-05-06T03:11:16.653Z,9.71
2018-05-06T03:12:16.915Z,9.66
2018-05-06T03:13:17.175Z,9.62
2018-05-06T03:14:16.441Z,9.51
2018-05-06T03:15:16.705Z,9.54
2018-05-06T03:16:16.976Z,9.53
2018-05-06T03:17:17.243Z,9.53
2018-05-06T03:18:16.483Z,9.59
2018-05-06T03:19:16.754Z,9.58
2018-05-06T03:20:16.347Z,9.58
2018-05-06T03:21:16.384Z,9.65
2018-05-06T03:22:16.654Z,9.59
2018-05-06T03:23:16.924Z,9.54
2018-05-06T03:24:17.191Z,9.59
2018-05-06T03:25:16.456Z,9.71
2018-05-06T03:26:16.723Z,9.91
2018-05-06T03:27:16.988Z,9.84
2018-05-06T03:28:17.245Z,9.76
2018-05-06T03:29:16.582Z,9.69
2018-05-06T03:30:16.887Z,9.58
2018-05-06T03:31:16.896Z,9.61
2018-05-06T03:32:17.168Z,9.74
2018-05-06T03:33:16.437Z,9.72
2018-05-06T03:34:16.702Z,9.62
2018-05-06T03:35:16.965Z,9.62
2018-05-06T03:36:17.227Z,9.61
2018-05-06T03:37:16.493Z,9.81
2018-05-06T03:38:16.753Z,9.82
2018-05-06T03:39:17.014Z,9.80
2018-05-06T03:40:17.290Z,9.74
2018-05-06T03:41:16.327Z,9.65
2018-05-06T03:42:16.587Z,9.54
2018-05-06T03:43:16.855Z,9.54
2018-05-06T03:44:17.119Z,9.61
2018-05-06T03:45:16.386Z,9.57
2018-05-06T03:46:16.659Z,9.82
2018-05-06T03:47:16.934Z,9.81
2018-05-06T03:48:17.202Z,9.80
2018-05-06T03:49:16.473Z,9.78
2018-05-06T03:50:16.742Z,9.78
2018-05-06T03:51:16.785Z,9.75
2018-05-06T03:52:17.044Z,9.68
2018-05-06T03:53:16.310Z,9.61
2018-05-06T03:54:16.575Z,9.58
2018-05-06T03:55:16.850Z,9.57
2018-05-06T03:56:17.107Z,9.50
2018-05-06T03:57:16.550Z,9.44
2018-05-06T03:58:16.813Z,9.38
2018-05-06T03:59:17.070Z,9.33
2018-05-06T04:00:16.344Z,9.26
2018-05-06T04:01:16.391Z,9.26
2018-05-06T04:02:16.659Z,9.24
2018-05-06T04:03:16.938Z,9.22
2018-05-06T04:04:17.201Z,9.24
2018-05-06T04:05:16.466Z,9.24
2018-05-06T04:06:16.800Z,9.24
2018-05-06T04:07:17.066Z,9.20
2018-05-06T04:08:16.335Z,9.16
2018-05-06T04:09:16.593Z,9.09
2018-05-06T04:10:16.851Z,9.03
2018-05-06T04:11:16.905Z,9.09
2018-05-06T04:12:17.178Z,9.15
2018-05-06T04:13:16.441Z,9.10
2018-05-06T04:14:16.702Z,9.16
2018-05-06T04:15:16.966Z,9.22
2018-05-06T04:16:17.780Z,9.24
2018-05-06T04:17:17.117Z,9.17
2018-05-06T04:18:16.380Z,9.16
2018-05-06T04:19:16.645Z,9.13
2018-05-06T04:20:16.918Z,9.16
2018-05-06T04:21:17.014Z,9.13
2018-05-06T04:22:16.362Z,9.16
2018-05-06T04:23:16.623Z,9.15
2018-05-06T04:24:16.893Z,9.30
2018-05-06T04:25:17.177Z,9.31
2018-05-06T04:26:16.454Z,9.23
2018-05-06T04:27:16.989Z,9.20
2018-05-06T04:28:17.252Z,9.37
2018-05-06T04:29:16.523Z,9.36
2018-05-06T04:30:16.790Z,9.33
2018-05-06T04:31:16.846Z,9.33
2018-05-06T04:32:17.106Z,9.27
2018-05-06T04:33:16.367Z,9.34
2018-05-06T04:34:16.626Z,9.30
2018-05-06T04:35:16.889Z,9.23
2018-05-06T04:36:17.150Z,9.16
2018-05-06T04:37:16.410Z,9.19
2018-05-06T04:38:16.679Z,9.17
2018-05-06T04:39:16.955Z,10.14
2018-05-06T04:40:17.219Z,10.37
2018-05-06T04:41:17.269Z,10.03
2018-05-06T04:42:16.529Z,9.85
2018-05-06T04:43:16.804Z,9.85
2018-05-06T04:44:17.159Z,10.06
2018-05-06T04:45:16.517Z,9.88
2018-05-06T04:46:16.786Z,9.78
2018-05-06T04:47:17.050Z,9.69
2018-05-06T04:48:16.305Z,9.82
2018-05-06T04:49:16.577Z,9.80
2018-05-06T04:50:16.855Z,9.72
2018-05-06T04:51:16.901Z,9.69
2018-05-06T04:52:17.180Z,9.66
2018-05-06T04:53:16.436Z,9.62
2018-05-06T04:54:16.697Z,9.62
2018-05-06T04:55:16.972Z,9.78
2018-05-06T04:56:17.236Z,9.81
2018-05-06T04:57:16.490Z,9.81
2018-05-06T04:58:16.759Z,9.78
2018-05-06T04:59:17.029Z,9.81
2018-05-06T05:00:16.297Z,9.91
2018-05-06T05:01:16.331Z,10.01
2018-05-06T05:02:16.594Z,10.01
2018-05-06T05:03:16.867Z,9.98
2018-05-06T05:04:17.127Z,10.40
2018-05-06T05:05:16.411Z,10.41
2018-05-06T05:06:16.693Z,10.29
2018-05-06T05:07:16.953Z,10.24
2018-05-06T05:08:17.229Z,10.34
2018-05-06T05:09:16.497Z,10.34
2018-05-06T05:10:16.761Z,11.00
2018-05-06T05:11:16.815Z,10.95
2018-05-06T05:12:17.074Z,10.74
2018-05-06T05:13:16.337Z,10.65
2018-05-06T05:14:16.612Z,10.81
2018-05-06T05:15:16.877Z,10.84
2018-05-06T05:16:17.137Z,10.82
2018-05-06T05:17:16.395Z,10.88
2018-05-06T05:18:16.659Z,10.98
2018-05-06T05:19:16.925Z,11.42
2018-05-06T05:20:16.617Z,11.58
2018-05-06T05:21:16.671Z,11.61
2018-05-06T05:22:16.939Z,11.84
2018-05-06T05:23:17.207Z,11.72
2018-05-06T05:24:16.472Z,11.93
2018-05-06T05:25:16.746Z,11.93
2018-05-06T05:26:17.014Z,11.91
2018-05-06T05:27:17.275Z,11.65
2018-05-06T05:28:16.608Z,11.57
2018-05-06T05:29:16.872Z,11.71
2018-05-06T05:30:17.154Z,11.70
2018-05-06T05:31:17.182Z,11.65
2018-05-06T05:32:16.451Z,11.85
2018-05-06T05:33:16.713Z,11.88
2018-05-06T05:34:16.983Z,11.86
2018-05-06T05:35:17.252Z,11.81
2018-05-06T05:36:16.530Z,11.71
2018-05-06T05:37:16.790Z,11.64
2018-05-06T05:38:17.046Z,11.70
2018-05-06T05:39:16.307Z,12.25
2018-05-06T05:40:16.576Z,12.20
2018-05-06T05:41:16.635Z,12.11
2018-05-06T05:42:16.917Z,11.99
2018-05-06T05:43:17.183Z,12.01
2018-05-06T05:44:16.458Z,12.05
2018-05-06T05:45:16.729Z,12.01
2018-05-06T05:46:16.996Z,12.05
2018-05-06T05:47:16.329Z,12.08
2018-05-06T05:48:16.592Z,12.16
2018-05-06T05:49:16.871Z,12.16
2018-05-06T05:50:17.139Z,12.28
2018-05-06T05:51:17.191Z,12.20
2018-05-06T05:52:16.460Z,12.41
2018-05-06T05:53:16.733Z,12.63
2018-05-06T05:54:16.997Z,12.67
2018-05-06T05:55:17.265Z,12.64
2018-05-06T05:56:16.523Z,12.82
2018-05-06T05:57:16.857Z,12.87
2018-05-06T05:58:17.123Z,12.88
2018-05-06T05:59:16.378Z,12.79
2018-05-06T06:00:16.646Z,12.87
2018-05-06T06:01:16.695Z,12.96
2018-05-06T06:02:16.964Z,13.01
2018-05-06T06:03:17.233Z,13.04
2018-05-06T06:04:16.497Z,13.08
2018-05-06T06:05:16.751Z,13.16
2018-05-06T06:06:17.011Z,13.15
2018-05-06T06:07:17.274Z,13.15
2018-05-06T06:08:16.539Z,13.18
2018-05-06T06:09:16.819Z,13.23
2018-05-06T06:10:17.084Z,13.26
2018-05-06T06:11:17.124Z,13.27
2018-05-06T06:12:16.384Z,13.26
2018-05-06T06:13:16.653Z,13.21
2018-05-06T06:14:16.920Z,13.34
2018-05-06T06:15:17.183Z,13.34
2018-05-06T06:16:16.488Z,13.40
2018-05-06T06:17:16.762Z,13.42
2018-05-06T06:18:17.026Z,13.50
2018-05-06T06:19:16.300Z,13.50
2018-05-06T06:20:16.583Z,13.44
2018-05-06T06:21:16.601Z,13.61
2018-05-06T06:22:16.878Z,13.68
2018-05-06T06:23:17.135Z,13.67
2018-05-06T06:24:16.398Z,13.70
2018-05-06T06:25:16.648Z,13.74
2018-05-06T06:26:16.915Z,13.80
2018-05-06T06:27:17.169Z,13.81
2018-05-06T06:28:16.430Z,13.67
2018-05-06T06:29:16.694Z,13.76
2018-05-06T06:30:16.973Z,13.82
2018-05-06T06:31:17.024Z,13.91
2018-05-06T06:32:16.283Z,13.91
2018-05-06T06:33:16.551Z,14.01
2018-05-06T06:34:16.822Z,13.97
2018-05-06T06:35:17.097Z,13.85
2018-05-06T06:36:16.360Z,13.88
2018-05-06T06:37:16.633Z,14.00
2018-05-06T06:38:16.929Z,14.26
2018-05-06T06:39:17.274Z,14.28
2018-05-06T06:40:16.565Z,14.18
2018-05-06T06:41:16.617Z,14.19
2018-05-06T06:42:16.894Z,14.15
2018-05-06T06:43:17.157Z,14.19
2018-05-06T06:44:16.420Z,14.32
2018-05-06T06:45:16.690Z,14.39
2018-05-06T06:46:16.957Z,14.47
2018-05-06T06:47:17.218Z,14.52
2018-05-06T06:48:16.475Z,14.35
2018-05-06T06:49:16.733Z,14.36
2018-05-06T06:50:17.006Z,14.47
2018-05-06T06:51:17.043Z,14.49
2018-05-06T06:52:16.305Z,14.59
2018-05-06T06:53:16.568Z,14.64
2018-05-06T06:54:16.830Z,14.63
2018-05-06T06:55:17.095Z,14.78
2018-05-06T06:56:16.355Z,14.68
2018-05-06T06:57:16.645Z,14.71
2018-05-06T06:58:16.903Z,14.76
2018-05-06T06:59:17.168Z,14.77
2018-05-06T07:00:16.449Z,14.81
2018-05-06T07:01:16.522Z,14.99
2018-05-06T07:02:16.794Z,15.06
2018-05-06T07:03:17.060Z,15.01
2018-05-06T07:04:16.332Z,15.26
2018-05-06T07:05:16.599Z,15.25
2018-05-06T07:06:16.869Z,15.18
2018-05-06T07:07:17.127Z,15.14
2018-05-06T07:08:16.389Z,15.28
2018-05-06T07:09:16.663Z,15.26
2018-05-06T07:10:16.925Z,15.33
2018-05-06T07:11:17.040Z,15.47
2018-05-06T07:12:16.378Z,15.49
2018-05-06T07:13:16.636Z,15.49
2018-05-06T07:14:16.905Z,15.84
2018-05-06T07:15:17.169Z,15.91
2018-05-06T07:16:16.424Z,15.92
2018-05-06T07:17:16.680Z,15.73
2018-05-06T07:18:16.932Z,15.69
2018-05-06T07:19:17.217Z,15.70
2018-05-06T07:20:16.571Z,15.63
2018-05-06T07:21:16.613Z,15.64
2018-05-06T07:22:16.872Z,15.66
2018-05-06T07:23:17.127Z,15.57
2018-05-06T07:24:16.392Z,15.53
2018-05-06T07:25:16.648Z,15.70
2018-05-06T07:26:16.913Z,15.77
2018-05-06T07:27:17.267Z,15.85
2018-05-06T07:28:16.529Z,15.66
2018-05-06T07:29:16.792Z,15.85
2018-05-06T07:30:17.064Z,15.88
2018-05-06T07:31:17.101Z,16.07
2018-05-06T07:32:16.363Z,16.01
2018-05-06T07:33:16.631Z,15.94
2018-05-06T07:34:16.897Z,16.04
2018-05-06T07:35:17.158Z,16.09
2018-05-06T07:36:16.425Z,16.02
2018-05-06T07:37:16.690Z,16.01
2018-05-06T07:38:16.948Z,16.08
2018-05-06T07:39:17.214Z,16.15
2018-05-06T07:40:16.504Z,16.25
2018-05-06T07:41:16.521Z,16.19
2018-05-06T07:42:16.785Z,16.25
2018-05-06T07:43:17.042Z,16.31
2018-05-06T07:44:16.302Z,16.31
2018-05-06T07:45:16.560Z,16.52
2018-05-06T07:46:16.820Z,16.57
2018-05-06T07:47:17.085Z,16.73
2018-05-06T07:48:16.348Z,16.66
2018-05-06T07:49:16.617Z,16.87
2018-05-06T07:50:16.892Z,16.94
2018-05-06T07:51:16.936Z,16.63
2018-05-06T07:52:17.213Z,16.71
2018-05-06T07:53:16.481Z,16.73
2018-05-06T07:54:16.732Z,16.53
2018-05-06T07:55:16.988Z,16.57
2018-05-06T07:56:17.251Z,16.56
2018-05-06T07:57:16.513Z,16.53
2018-05-06T07:58:16.781Z,16.62
2018-05-06T07:59:17.040Z,16.81
2018-05-06T08:00:16.324Z,16.86
2018-05-06T08:01:16.352Z,16.83
2018-05-06T08:02:16.616Z,17.03
2018-05-06T08:03:16.879Z,17.32
2018-05-06T08:04:17.145Z,17.32
2018-05-06T08:05:16.412Z,17.13
2018-05-06T08:06:16.679Z,17.26
2018-05-06T08:07:16.956Z,17.36
2018-05-06T08:08:17.214Z,17.21
2018-05-06T08:09:16.471Z,17.25
2018-05-06T08:10:16.736Z,17.31
2018-05-06T08:11:16.799Z,17.69
2018-05-06T08:12:17.061Z,17.57
2018-05-06T08:13:16.329Z,17.49
2018-05-06T08:14:16.595Z,17.50
2018-05-06T08:15:16.862Z,17.45
2018-05-06T08:16:17.153Z,17.89
2018-05-06T08:17:16.499Z,18.33
2018-05-06T08:18:17.336Z,18.41
2018-05-06T08:19:16.602Z,18.17
2018-05-06T08:20:16.870Z,18.12
2018-05-06T08:21:16.920Z,17.98
2018-05-06T08:22:17.187Z,18.12
2018-05-06T08:23:16.448Z,18.05
2018-05-06T08:24:16.707Z,18.44
2018-05-06T08:25:16.965Z,18.55
2018-05-06T08:26:17.227Z,18.51
2018-05-06T08:27:16.502Z,18.56
2018-05-06T08:28:16.772Z,18.76
2018-05-06T08:29:17.036Z,18.15
2018-05-06T08:30:16.308Z,18.05
2018-05-06T08:31:16.399Z,17.86
2018-05-06T08:32:16.822Z,18.04
2018-05-06T08:33:17.087Z,18.59
2018-05-06T08:34:16.512Z,18.93
2018-05-06T08:35:16.783Z,18.94
2018-05-06T08:36:17.043Z,18.75
2018-05-06T08:37:16.306Z,19.27
2018-05-06T08:38:16.571Z,19.35
2018-05-06T08:39:16.833Z,19.55
2018-05-06T08:40:17.109Z,19.74
2018-05-06T08:41:17.401Z,20.13
2018-05-06T08:42:16.672Z,20.16
2018-05-06T08:43:16.940Z,19.89
2018-05-06T08:44:17.202Z,19.52
2018-05-06T08:45:16.462Z,19.90
2018-05-06T08:46:16.735Z,20.25
2018-05-06T08:47:17.003Z,20.44
2018-05-06T08:48:17.258Z,19.97
2018-05-06T08:49:16.517Z,20.42
2018-05-06T08:50:16.786Z,20.62
2018-05-06T08:51:16.889Z,20.72
2018-05-06T08:52:17.155Z,20.69
2018-05-06T08:53:16.418Z,20.76
2018-05-06T08:54:16.681Z,20.99
2018-05-06T08:55:17.014Z,21.25
2018-05-06T08:56:16.402Z,21.14
2018-05-06T08:57:16.667Z,20.73
2018-05-06T08:58:16.919Z,21.37
2018-05-06T08:59:17.515Z,21.37
2018-05-06T09:00:16.795Z,21.33
2018-05-06T09:01:16.834Z,20.51
2018-05-06T09:02:17.090Z,20.76
2018-05-06T09:03:16.354Z,20.68
2018-05-06T09:04:16.617Z,21.03
2018-05-06T09:05:16.880Z,21.52
2018-05-06T09:06:17.150Z,20.44
2018-05-06T09:07:16.407Z,21.37
2018-05-06T09:08:16.676Z,21.14
2018-05-06T09:09:16.942Z,20.83
2018-05-06T09:10:17.215Z,21.24
2018-05-06T09:11:17.273Z,21.64
2018-05-06T09:12:16.532Z,22.24
2018-05-06T09:13:16.794Z,21.69
2018-05-06T09:14:17.065Z,21.70
2018-05-06T09:15:16.333Z,21.89
2018-05-06T09:16:16.593Z,22.26
2018-05-06T09:17:16.857Z,22.33
2018-05-06T09:18:17.121Z,22.51
2018-05-06T09:19:16.383Z,22.53
2018-05-06T09:20:16.646Z,22.37
2018-05-06T09:21:16.698Z,22.31
2018-05-06T09:22:16.965Z,21.79
2018-05-06T09:23:17.230Z,21.73
2018-05-06T09:24:16.486Z,21.70
2018-05-06T09:25:16.821Z,22.09
2018-05-06T09:26:17.185Z,22.58
2018-05-06T09:27:16.445Z,22.43
2018-05-06T09:28:16.698Z,23.27
2018-05-06T09:29:16.965Z,23.22
2018-05-06T09:30:17.237Z,22.72
2018-05-06T09:31:16.296Z,22.34
2018-05-06T09:32:16.618Z,22.98
2018-05-06T09:33:16.999Z,23.27
2018-05-06T09:34:17.265Z,22.91
2018-05-06T09:35:16.534Z,22.68
2018-05-06T09:36:16.792Z,22.26
2018-05-06T09:37:17.060Z,22.35
2018-05-06T09:38:16.418Z,22.76
2018-05-06T09:39:16.958Z,22.85
2018-05-06T09:40:17.222Z,22.51
2018-05-06T09:41:17.259Z,22.51
2018-05-06T09:42:16.524Z,21.83
2018-05-06T09:43:16.791Z,22.02
2018-05-06T09:44:17.059Z,21.70
2018-05-06T09:45:16.329Z,21.96
2018-05-06T09:46:16.608Z,21.97
2018-05-06T09:47:16.868Z,22.05
2018-05-06T09:48:17.143Z,22.20
2018-05-06T09:49:16.405Z,22.95
2018-05-06T09:50:16.682Z,22.79
2018-05-06T09:51:16.717Z,22.88
2018-05-06T09:52:16.986Z,23.05
2018-05-06T09:53:17.250Z,23.12
2018-05-06T09:54:16.514Z,21.68
2018-05-06T09:55:16.778Z,21.58
2018-05-06T09:56:17.034Z,21.80
2018-05-06T09:57:16.291Z,22.62
2018-05-06T09:58:16.559Z,22.51
2018-05-06T09:59:16.834Z,22.09
2018-05-06T10:00:17.106Z,21.88
2018-05-06T10:01:17.157Z,21.99
2018-05-06T10:02:16.408Z,22.23
2018-05-06T10:03:16.675Z,22.00
2018-05-06T10:04:17.243Z,21.96
2018-05-06T10:05:16.494Z,22.07
2018-05-06T10:06:16.749Z,22.48
2018-05-06T10:07:17.010Z,21.66
2018-05-06T10:08:17.280Z,21.69
2018-05-06T10:09:16.689Z,21.49
2018-05-06T10:10:16.950Z,21.38
2018-05-06T10:11:17.000Z,21.10
2018-05-06T10:12:17.259Z,21.24
2018-05-06T10:13:16.517Z,21.70
2018-05-06T10:14:16.790Z,21.59
2018-05-06T10:15:17.054Z,21.36
2018-05-06T10:16:16.317Z,21.45
2018-05-06T10:17:16.580Z,21.03
2018-05-06T10:18:16.846Z,21.06
2018-05-06T10:19:17.111Z,20.56
2018-05-06T10:20:16.371Z,20.39
2018-05-06T10:21:16.418Z,20.60
2018-05-06T10:22:16.740Z,20.41
2018-05-06T10:23:17.095Z,20.62
2018-05-06T10:24:16.364Z,20.51
2018-05-06T10:25:16.639Z,20.58
2018-05-06T10:26:16.926Z,20.41
2018-05-06T10:27:17.260Z,20.60
2018-05-06T10:28:16.536Z,21.00
2018-05-06T10:29:16.814Z,22.07
2018-05-06T10:30:17.087Z,21.85
2018-05-06T10:31:17.125Z,20.87
2018-05-06T10:32:16.386Z,21.24
2018-05-06T10:33:16.645Z,21.52
2018-05-06T10:34:16.902Z,21.34
2018-05-06T10:35:17.166Z,20.62
2018-05-06T10:36:16.420Z,21.14
2018-05-06T10:37:16.679Z,21.04
2018-05-06T10:38:16.956Z,20.21
2018-05-06T10:39:17.231Z,20.18
2018-05-06T10:40:16.496Z,19.74
2018-05-06T10:41:16.525Z,19.86
2018-05-06T10:42:16.860Z,20.86
2018-05-06T10:43:16.449Z,21.15
2018-05-06T10:44:16.751Z,21.92
2018-05-06T10:45:17.442Z,22.17
2018-05-06T10:46:16.700Z,22.47
2018-05-06T10:47:16.965Z,22.17
2018-05-06T10:48:16.281Z,21.31
2018-05-06T10:49:16.738Z,21.20
2018-05-06T10:50:16.306Z,21.00
2018-05-06T10:51:16.372Z,21.36
2018-05-06T10:52:16.630Z,21.36
2018-05-06T10:53:16.889Z,21.54
2018-05-06T10:54:17.154Z,21.48
2018-05-06T10:55:16.416Z,21.64
2018-05-06T10:56:16.697Z,21.66
2018-05-06T10:57:16.955Z,21.70
2018-05-06T10:58:17.213Z,21.48
2018-05-06T10:59:16.477Z,20.92
2018-05-06T11:00:16.754Z,20.87
2018-05-06T11:01:16.803Z,20.73
2018-05-06T11:02:17.070Z,20.71
2018-05-06T11:03:16.333Z,20.38
2018-05-06T11:04:16.598Z,20.34
2018-05-06T11:05:16.870Z,20.35
2018-05-06T11:06:17.145Z,20.42
2018-05-06T11:07:16.414Z,20.60
2018-05-06T11:08:16.687Z,20.92
2018-05-06T11:09:16.954Z,21.14
2018-05-06T11:10:17.325Z,21.92
2018-05-06T11:11:17.270Z,22.28
2018-05-06T11:12:16.538Z,22.02
2018-05-06T11:13:16.796Z,21.44
2018-05-06T11:14:17.062Z,21.27
2018-05-06T11:15:16.400Z,21.02
2018-05-06T11:16:16.681Z,21.34
2018-05-06T11:17:16.953Z,21.69
2018-05-06T11:18:17.217Z,21.89
2018-05-06T11:19:16.479Z,22.55
2018-05-06T11:20:16.756Z,22.75
2018-05-06T11:21:16.798Z,22.41
2018-05-06T11:22:17.061Z,22.74
2018-05-06T11:23:16.317Z,22.21
2018-05-06T11:24:16.585Z,21.61
2018-05-06T11:25:16.849Z,21.45
2018-05-06T11:26:17.205Z,20.99
2018-05-06T11:27:16.564Z,21.64
2018-05-06T11:28:16.822Z,21.40
2018-05-06T11:29:17.092Z,21.24
2018-05-06T11:30:16.350Z,21.21
2018-05-06T11:31:16.387Z,21.86
2018-05-06T11:32:16.660Z,21.75
2018-05-06T11:33:16.925Z,21.55
2018-05-06T11:34:17.256Z,21.52
2018-05-06T11:35:16.525Z,22.00
2018-05-06T11:36:16.796Z,22.05
2018-05-06T11:37:17.056Z,22.02
2018-05-06T11:38:16.315Z,21.68
2018-05-06T11:39:16.595Z,21.82
2018-05-06T11:40:16.857Z,22.10
2018-05-06T11:41:16.902Z,21.86
2018-05-06T11:42:17.172Z,21.72
2018-05-06T11:43:16.437Z,21.48
2018-05-06T11:44:16.708Z,21.34
2018-05-06T11:45:16.965Z,21.41
2018-05-06T11:46:17.239Z,21.47
2018-05-06T11:47:16.500Z,21.49
2018-05-06T11:48:16.777Z,21.44
2018-05-06T11:49:17.049Z,21.52
2018-05-06T11:50:16.322Z,21.99
2018-05-06T11:51:16.362Z,21.99
2018-05-06T11:52:16.627Z,22.40
2018-05-06T11:53:16.894Z,22.89
2018-05-06T11:54:17.157Z,22.64
2018-05-06T11:55:16.431Z,22.78
2018-05-06T11:56:16.778Z,23.10
2018-05-06T11:57:17.267Z,22.59
2018-05-06T11:58:16.534Z,22.38
2018-05-06T11:59:16.792Z,22.20
2018-05-06T12:00:17.069Z,22.64
2018-05-06T12:01:17.125Z,22.53
2018-05-06T12:02:16.408Z,22.28
2018-05-06T12:03:16.762Z,22.16
2018-05-06T12:04:17.022Z,21.99
2018-05-06T12:05:16.294Z,21.92
2018-05-06T12:06:16.564Z,21.72
2018-05-06T12:07:16.819Z,21.54
2018-05-06T12:08:16.362Z,22.41
2018-05-06T12:09:16.628Z,22.18
2018-05-06T12:10:16.903Z,22.18
2018-05-06T12:11:16.933Z,22.10
2018-05-06T12:12:17.197Z,22.10
2018-05-06T12:13:16.456Z,22.13
2018-05-06T12:14:16.711Z,22.13
2018-05-06T12:15:16.981Z,21.93
2018-05-06T12:16:17.239Z,22.06
2018-05-06T12:17:16.507Z,22.28
2018-05-06T12:18:16.769Z,22.06
2018-05-06T12:19:17.024Z,22.07
2018-05-06T12:20:16.300Z,21.87
2018-05-06T12:21:16.328Z,21.80
2018-05-06T12:22:16.591Z,21.85
2018-05-06T12:23:16.858Z,21.73
2018-05-06T12:24:17.124Z,21.59
2018-05-06T12:25:16.396Z,21.59
2018-05-06T12:26:16.661Z,21.71
2018-05-06T12:27:16.914Z,21.76
2018-05-06T12:28:17.179Z,21.67
2018-05-06T12:29:16.455Z,21.74
2018-05-06T12:30:16.749Z,21.74
2018-05-06T12:31:16.794Z,21.60
2018-05-06T12:32:17.052Z,21.60
2018-05-06T12:33:16.315Z,21.51
2018-05-06T12:34:16.585Z,21.73
2018-05-06T12:35:16.862Z,21.81
2018-05-06T12:36:17.129Z,21.73
2018-05-06T12:37:16.396Z,21.57
2018-05-06T12:38:16.667Z,21.62
2018-05-06T12:39:16.933Z,21.63
2018-05-06T12:40:17.198Z,21.78
2018-05-06T12:41:17.234Z,21.80
2018-05-06T12:42:16.491Z,21.69
2018-05-06T12:43:16.852Z,21.76
2018-05-06T12:44:16.408Z,21.89
2018-05-06T12:45:16.680Z,22.03
2018-05-06T12:46:16.945Z,21.88
2018-05-06T12:47:17.207Z,21.81
2018-05-06T12:48:16.471Z,21.76
2018-05-06T12:49:16.752Z,21.77
2018-05-06T12:50:17.008Z,21.82
2018-05-06T12:51:17.050Z,21.97
2018-05-06T12:52:16.312Z,21.87
2018-05-06T12:53:16.593Z,21.89
2018-05-06T12:54:16.854Z,22.09
2018-05-06T12:55:17.189Z,22.03
2018-05-06T12:56:16.530Z,21.93